Flight Track Log - Related Links

Times and Time Zones

All times are in EDT time to prevent confusion due to time zone crossing. See the UAL4295 flight status page for this flight to view local times or setup timezone preferences in your user account.

Time Position Orientation Groundspeed Altitude Reporting Facility
EDT Latitude Longitude Course Direction KTS MPH feet Rate Location/Type
Sat 05:02:39 PM 38.9081 -77.0989 62° Northeast 177 204 2,900  Level Washington Center
Sat 05:03:39 PM 38.9575 -77.1481 322° Northwest 204 235 5,600 2,450 Climbing Washington Center
Sat 05:04:00 PM 38.9354 -76.7791 57° Northeast  Level FlightAware Approximate
Sat 05:04:39 PM 39.0122 -77.1117 27° Northeast 209 241 7,800  Level Washington Center
Sat 05:05:00 PM 38.9682 -76.6953 67° East  Level FlightAware Approximate
Sat 05:06:00 PM 38.9976 -76.6071 67° East  Level FlightAware Approximate
Sat 05:06:39 PM 39.0481 -76.8878 78° East 277 319 10,600  Level Washington Center
Sat 05:07:00 PM 39.0292 -76.5201 62° Northeast  Level FlightAware Approximate
Sat 05:07:39 PM 39.0683 -76.7600 78° East 326 375 13,000  Level Washington Center
Sat 05:08:39 PM 39.0881 -76.6292 79° East 356 410 14,600 1,750 Climbing Washington Center
Sat 05:09:39 PM 39.1081 -76.4958 79° East 366 421 16,500 1,200 Climbing Washington Center
Sat 05:10:39 PM 39.1028 -76.3619 93° East 371 427 17,000 700 Climbing Washington Center
Sat 05:11:39 PM 39.0972 -76.2228 93° East 371 427 17,900 1,250 Climbing Washington Center
Sat 05:12:39 PM 39.0978 -76.0864 90° East 376 433 19,500 1,500 Climbing Washington Center
Sat 05:13:39 PM 39.0942 -75.9392 92° East 392 451 20,900 750 Climbing Washington Center
Sat 05:14:39 PM 39.1153 -75.7975 79° East 403 464 21,000 -600 Climbing Washington Center
Sat 05:15:39 PM 39.1906 -75.6853 49° Northeast 386 444 19,700 -1,000 Descending Washington Center
Sat 05:16:39 PM 39.2697 -75.5942 42° Northeast 388 447 19,000 -350 Descending Washington Center
Sat 05:17:39 PM 39.3697 -75.5458 20° North 365 420 19,000  Level Washington Center
Sat 05:18:39 PM 39.4656 -75.5003 20° North 359 413 19,000  Level Washington Center
Sat 05:19:39 PM 39.5656 -75.4650 15° North 365 420 19,000  Level Washington Center
Sat 05:20:40 PM 39.6656 -75.4514 North 365 420 19,000  Level Washington Center
Sat 05:21:39 PM 39.7633 -75.4214 13° North 365 420 19,000 -403 Level Washington Center
Sat 05:22:39 PM 39.8569 -75.3508 30° Northeast 373 429 18,200 -1,550 Descending Washington Center
Sat 05:23:39 PM 39.9569 -75.2719 31° Northeast 373 429 15,900 -1,983 Descending Washington Center
Sat 05:24:40 PM 40.0192 -75.1742 50° Northeast 346 398 14,200 -1,500 Descending Washington Center
Sat 05:25:39 PM 40.0414 -75.0467 77° East 338 389 12,900 -655 Descending Washington Center
Sat 05:26:39 PM 40.1100 -74.9811 36° Northeast 311 358 12,900 -950 Level Washington Center
Sat 05:27:39 PM 40.1950 -74.9397 20° North 305 351 11,000 -2,050 Descending Washington Center
Sat 05:28:39 PM 40.2739 -74.8956 23° Northeast 305 351 8,800 -1,550 Descending Washington Center
Sat 05:29:39 PM 40.2692 -74.8139 94° East 200 230 7,900 -450 Descending Washington Center
Sat 05:30:39 PM 40.2089 -74.8228 186° South 104 120 7,900  Level Washington Center
Sat 05:31:39 PM 40.1675 -74.8775 225° Southwest 135 155 7,900  Level Washington Center
Sat 05:32:39 PM 40.1450 -74.9428 246° West 169 194 7,900 67 Level Washington Center
Sat 05:33:08 PM 40.1667 -74.9667 320° Northwest 221 254 8,000 68 Climbing New York TRACON
Sat 05:34:07 PM 40.2167 -74.9500 14° North 249 287 8,000  Level New York TRACON
Sat 05:35:07 PM 40.2667 -74.8833 45° Northeast 282 325 8,000  Level New York TRACON
Sat 05:36:07 PM 40.3167 -74.8167 45° Northeast 279 321 8,000 -50 Level New York TRACON
Sat 05:37:07 PM 40.3833 -74.7333 44° Northeast 272 313 7,900 -99 Descending New York TRACON
Sat 05:39:08 PM 40.4833 -74.6500 32° Northeast 222 255 7,700 -398 Descending New York TRACON
Sat 05:40:08 PM 40.5500 -74.6333 11° North 224 258 6,700 -857 Descending New York TRACON
Sat 05:41:07 PM 40.6000 -74.6167 14° North 218 251 6,000 -368 Descending New York TRACON
Sat 05:42:02 PM 40.6500 -74.6000 14° North 224 258 6,000  Level New York TRACON
Sat 05:43:07 PM 40.7333 -74.5833 North 222 255 6,000 -95 Level New York TRACON
Sat 05:44:08 PM 40.7833 -74.5667 14° North 217 250 5,800 -500 Descending New York TRACON
Sat 05:45:07 PM 40.8333 -74.5500 14° North 223 257 5,000 -400 Descending New York TRACON
Sat 05:46:08 PM 40.8833 -74.5000 37° Northeast 234 269 5,000  Level New York TRACON
Sat 05:47:08 PM 40.9333 -74.4500 37° Northeast 229 264 5,000  Level New York TRACON
Sat 05:48:07 PM 40.9667 -74.3667 62° Northeast 239 275 5,000  Level New York TRACON
Sat 05:49:07 PM 40.9667 -74.2833 90° East 205 236 5,000 -450 Level New York TRACON
Sat 05:50:07 PM 40.9667 -74.2167 90° East 205 236 4,100 -545 Descending New York TRACON
Sat 05:51:08 PM 40.9500 -74.1500 108° East 200 230 3,900 -522 Descending New York TRACON
Sat 05:52:02 PM 40.9167 -74.1000 131° Southeast 195 224 3,100 -474 Descending New York TRACON
Sat 05:53:02 PM 40.8833 -74.0500 131° Southeast 187 215 3,000 -143 Descending New York TRACON
Sat 05:54:08 PM 40.8333 -74.0833 207° Southwest 168 193 2,800 -182 Descending New York TRACON

Login

Don't have an account? Register now (free) for customized features, flight alerts, and more!